createdAt,value
2019-05-21T00:01:14.463Z,3.70
2019-05-21T00:03:46.657Z,3.20
2019-05-21T00:06:18.712Z,4.27
2019-05-21T00:08:50.867Z,3.53
2019-05-21T00:11:22.948Z,4.57
2019-05-21T00:13:55.102Z,3.13
2019-05-21T00:16:27.165Z,3.27
2019-05-21T00:18:59.254Z,3.00
2019-05-21T00:21:33.980Z,3.40
2019-05-21T00:24:06.209Z,3.20
2019-05-21T00:26:38.348Z,2.93
2019-05-21T00:30:03.291Z,4.40
2019-05-21T00:33:28.363Z,3.00
2019-05-21T00:36:55.504Z,2.87
2019-05-21T00:40:20.037Z,3.87
2019-05-21T00:42:52.593Z,3.50
2019-05-21T00:45:24.704Z,2.93
2019-05-21T00:47:56.631Z,3.97
2019-05-21T00:50:28.583Z,3.60
2019-05-21T00:53:00.538Z,3.40
2019-05-21T00:55:32.510Z,5.03
2019-05-21T00:58:04.474Z,3.43
2019-05-21T01:00:36.611Z,3.47
2019-05-21T01:03:08.769Z,3.57
2019-05-21T01:05:40.725Z,4.73
2019-05-21T01:08:12.729Z,2.90
2019-05-21T01:10:45.045Z,3.00
2019-05-21T01:13:17.128Z,3.20
2019-05-21T01:15:49.214Z,3.80
2019-05-21T01:18:21.231Z,4.13
2019-05-21T01:20:53.480Z,3.57
2019-05-21T01:23:25.469Z,3.90
2019-05-21T01:25:57.456Z,2.93
2019-05-21T01:28:29.480Z,4.43
2019-05-21T01:31:01.525Z,5.37
2019-05-21T01:33:33.759Z,6.53
2019-05-21T01:36:06.745Z,4.87
2019-05-21T01:38:38.907Z,6.37
2019-05-21T01:41:10.903Z,6.50
2019-05-21T01:43:42.800Z,9.17
2019-05-21T01:46:14.860Z,8.23
2019-05-21T01:48:46.875Z,8.23
2019-05-21T01:51:18.842Z,8.40
2019-05-21T01:53:51.684Z,10.17
2019-05-21T01:56:23.830Z,7.20
2019-05-21T01:58:58.908Z,8.80
2019-05-21T02:01:31.075Z,7.90
2019-05-21T02:04:03.136Z,10.57
2019-05-21T02:06:35.753Z,7.90
2019-05-21T02:09:09.774Z,11.17
2019-05-21T02:11:42.047Z,24.80
2019-05-21T02:14:14.153Z,19.80
2019-05-21T02:16:46.296Z,10.93
2019-05-21T02:19:18.320Z,8.90
2019-05-21T02:21:50.323Z,9.37
2019-05-21T02:24:22.483Z,6.80
2019-05-21T02:26:54.694Z,8.80
2019-05-21T02:29:26.928Z,7.20
2019-05-21T02:31:58.904Z,5.10
2019-05-21T02:34:30.887Z,4.87
2019-05-21T02:37:06.190Z,5.50
2019-05-21T02:39:36.774Z,5.70
2019-05-21T02:42:08.874Z,5.80
2019-05-21T02:44:41.037Z,5.40
2019-05-21T02:47:13.560Z,5.90
2019-05-21T02:49:45.597Z,5.87
2019-05-21T02:52:17.543Z,5.10
2019-05-21T02:54:50.118Z,6.17
2019-05-21T02:57:24.038Z,5.03
2019-05-21T02:59:58.303Z,4.20
2019-05-21T03:02:38.333Z,5.83
2019-05-21T03:05:10.604Z,4.40
2019-05-21T03:07:42.764Z,5.90
2019-05-21T03:10:14.860Z,3.90
2019-05-21T03:12:46.867Z,4.13
2019-05-21T03:15:19.222Z,6.93
2019-05-21T03:17:51.290Z,4.47
2019-05-21T03:20:23.612Z,3.97
2019-05-21T03:22:56.146Z,4.77
2019-05-21T03:25:28.346Z,3.73
2019-05-21T03:28:00.581Z,4.07
2019-05-21T03:30:34.056Z,3.70
2019-05-21T03:33:08.905Z,6.67
2019-05-21T03:35:42.407Z,5.03
2019-05-21T03:38:14.534Z,8.23
2019-05-21T03:40:46.615Z,5.10
2019-05-21T03:43:18.661Z,6.67
2019-05-21T03:45:50.771Z,4.00
2019-05-21T03:48:23.098Z,4.67
2019-05-21T03:50:55.388Z,5.23
2019-05-21T03:53:27.553Z,4.67
2019-05-21T03:55:59.573Z,5.53
2019-05-21T03:58:31.678Z,4.50
2019-05-21T04:01:03.979Z,3.30
2019-05-21T04:03:36.017Z,4.93
2019-05-21T04:06:07.961Z,4.43
2019-05-21T04:08:40.122Z,3.50
2019-05-21T04:11:12.256Z,3.57
2019-05-21T04:13:44.471Z,3.77
2019-05-21T04:16:33.918Z,4.57
2019-05-21T04:19:10.031Z,4.20
2019-05-21T04:21:42.448Z,20.20
2019-05-21T04:24:14.647Z,11.93
2019-05-21T04:26:46.874Z,6.80
2019-05-21T04:29:19.196Z,7.43
2019-05-21T04:31:51.406Z,4.53
2019-05-21T04:34:23.563Z,3.83
2019-05-21T04:37:10.138Z,3.33
2019-05-21T04:39:29.791Z,2.20
2019-05-21T04:42:02.018Z,3.47
2019-05-21T04:44:34.172Z,2.37
2019-05-21T04:47:06.219Z,2.23
2019-05-21T04:49:38.652Z,2.83
2019-05-21T04:52:10.964Z,2.20
2019-05-21T04:54:43.321Z,2.77
2019-05-21T04:57:15.519Z,1.93
2019-05-21T04:59:47.622Z,3.57
2019-05-21T05:02:19.854Z,4.67
2019-05-21T05:04:52.099Z,3.63
2019-05-21T05:07:27.999Z,4.37
2019-05-21T05:10:06.509Z,2.63
2019-05-21T05:12:38.766Z,2.77
2019-05-21T05:15:11.442Z,2.90
2019-05-21T05:17:43.530Z,1.77
2019-05-21T05:20:17.115Z,1.93
2019-05-21T05:22:49.685Z,2.27
2019-05-21T05:25:21.833Z,1.73
2019-05-21T05:27:53.936Z,2.33
2019-05-21T05:30:26.315Z,2.83
2019-05-21T05:32:58.680Z,1.67
2019-05-21T05:35:30.738Z,2.87
2019-05-21T05:38:02.876Z,2.37
2019-05-21T05:40:34.980Z,1.67
2019-05-21T05:43:07.316Z,2.40
2019-05-21T05:45:39.517Z,1.43
2019-05-21T05:48:12.057Z,1.40
2019-05-21T05:50:45.869Z,1.33
2019-05-21T05:53:18.034Z,1.23
2019-05-21T05:55:50.228Z,1.63
2019-05-21T05:58:22.606Z,2.43
2019-05-21T06:00:54.913Z,1.70
2019-05-21T06:03:27.227Z,1.47
2019-05-21T06:05:59.449Z,1.73
2019-05-21T06:08:31.736Z,5.00
2019-05-21T06:11:04.153Z,2.17
2019-05-21T06:13:36.435Z,3.77
2019-05-21T06:16:08.735Z,1.70
2019-05-21T06:18:40.882Z,2.10
2019-05-21T06:21:14.033Z,1.50
2019-05-21T06:23:46.426Z,1.70
2019-05-21T06:26:18.607Z,2.77
2019-05-21T06:28:50.795Z,2.73
2019-05-21T06:31:22.875Z,2.20
2019-05-21T06:33:55.092Z,2.77
2019-05-21T06:36:27.180Z,2.00
2019-05-21T06:38:59.487Z,2.20
2019-05-21T06:41:31.738Z,1.67
2019-05-21T06:44:04.026Z,1.97
2019-05-21T06:46:36.367Z,2.47
2019-05-21T06:49:08.564Z,3.37
2019-05-21T06:51:40.871Z,2.30
2019-05-21T06:54:13.290Z,2.70
2019-05-21T06:56:45.558Z,1.97
2019-05-21T06:59:17.976Z,1.73
2019-05-21T07:01:50.151Z,1.70
2019-05-21T07:04:22.295Z,2.03
2019-05-21T07:06:54.405Z,1.87
2019-05-21T07:09:26.637Z,2.00
2019-05-21T07:11:59.056Z,3.77
2019-05-21T07:14:31.266Z,1.80
2019-05-21T07:17:03.267Z,2.17
2019-05-21T07:19:35.504Z,1.63
2019-05-21T07:22:12.658Z,1.80
2019-05-21T07:24:41.898Z,1.70
2019-05-21T07:27:14.198Z,4.07
2019-05-21T07:29:46.434Z,3.17
2019-05-21T07:32:18.757Z,1.83
2019-05-21T07:34:51.159Z,2.30
2019-05-21T07:37:23.281Z,1.50
2019-05-21T07:39:55.370Z,1.60
2019-05-21T07:42:27.475Z,1.20
2019-05-21T07:45:00.685Z,1.20
2019-05-21T07:47:32.849Z,2.90
2019-05-21T07:50:05.659Z,2.90
2019-05-21T07:52:37.779Z,5.87
2019-05-21T07:55:10.060Z,1.70
2019-05-21T07:57:42.384Z,1.43
2019-05-21T08:00:15.962Z,1.60
2019-05-21T08:02:48.117Z,2.17
2019-05-21T08:05:20.247Z,2.00
2019-05-21T08:07:52.433Z,1.40
2019-05-21T08:10:24.720Z,2.33
2019-05-21T08:12:57.044Z,1.50
2019-05-21T08:15:29.499Z,2.93
2019-05-21T08:18:01.839Z,1.17
2019-05-21T08:20:34.017Z,1.83
2019-05-21T08:23:06.090Z,2.10
2019-05-21T08:25:38.357Z,2.53
2019-05-21T08:28:10.577Z,4.77
2019-05-21T08:30:42.806Z,2.27
2019-05-21T08:33:15.115Z,3.23
2019-05-21T08:35:47.088Z,9.27
2019-05-21T08:38:19.445Z,5.93
2019-05-21T08:40:51.788Z,2.43
2019-05-21T08:43:23.876Z,2.30
2019-05-21T08:45:55.990Z,3.53
2019-05-21T08:48:28.230Z,2.07
2019-05-21T08:51:00.340Z,1.63
2019-05-21T08:53:32.431Z,1.50
2019-05-21T08:56:04.592Z,1.83
2019-05-21T08:58:36.753Z,1.30
2019-05-21T09:01:09.221Z,1.77
2019-05-21T09:03:41.411Z,1.77
2019-05-21T09:06:14.067Z,2.53
2019-05-21T09:08:46.265Z,1.57
2019-05-21T09:11:18.477Z,1.20
2019-05-21T09:13:50.634Z,3.80
2019-05-21T09:16:22.903Z,1.57
2019-05-21T09:18:55.073Z,2.70
2019-05-21T09:21:27.242Z,1.50
2019-05-21T09:23:59.434Z,2.03
2019-05-21T09:26:31.783Z,2.07
2019-05-21T09:29:04.105Z,2.87
2019-05-21T09:31:36.325Z,1.87
2019-05-21T09:34:08.595Z,2.40
2019-05-21T09:36:40.879Z,1.50
2019-05-21T09:39:13.114Z,2.40
2019-05-21T09:41:45.314Z,1.60
2019-05-21T09:44:17.555Z,4.07
2019-05-21T09:46:50.099Z,1.93
2019-05-21T09:49:22.313Z,4.20
2019-05-21T09:51:54.708Z,1.93
2019-05-21T09:54:26.830Z,2.13
2019-05-21T09:56:58.969Z,1.60
2019-05-21T09:59:40.739Z,1.30
2019-05-21T10:02:19.885Z,1.83
2019-05-21T10:04:52.378Z,2.43
2019-05-21T10:07:39.262Z,2.13
2019-05-21T10:09:58.691Z,2.17
2019-05-21T10:12:31.226Z,1.53
2019-05-21T10:15:03.457Z,3.60
2019-05-21T10:17:35.665Z,1.87
2019-05-21T10:20:08.333Z,2.80
2019-05-21T10:22:40.523Z,1.57
2019-05-21T10:25:15.783Z,1.47
2019-05-21T10:27:47.218Z,1.00
2019-05-21T10:30:19.960Z,1.27
2019-05-21T10:32:52.259Z,2.60
2019-05-21T10:35:24.705Z,1.10
2019-05-21T10:37:57.161Z,1.83
2019-05-21T10:40:29.664Z,1.33
2019-05-21T10:43:02.016Z,1.63
2019-05-21T10:45:35.705Z,1.67
2019-05-21T10:48:08.179Z,2.53
2019-05-21T10:50:40.463Z,1.60
2019-05-21T10:53:12.973Z,1.33
2019-05-21T10:55:46.477Z,2.13
2019-05-21T10:58:18.625Z,1.13
2019-05-21T11:00:52.634Z,3.83
2019-05-21T11:03:49.573Z,2.70
2019-05-21T11:06:22.186Z,1.33
2019-05-21T11:08:54.499Z,2.43
2019-05-21T11:11:26.825Z,2.10
2019-05-21T11:13:59.188Z,2.57
2019-05-21T11:16:31.588Z,1.37
2019-05-21T11:19:04.069Z,2.10
2019-05-21T11:21:36.306Z,2.03
2019-05-21T11:24:09.106Z,1.27
2019-05-21T11:26:41.279Z,3.97
2019-05-21T11:29:13.553Z,1.77
2019-05-21T11:31:56.613Z,0.97
2019-05-21T11:34:19.658Z,1.20
2019-05-21T11:36:51.832Z,1.87
2019-05-21T11:39:24.058Z,1.00
2019-05-21T11:41:56.344Z,3.33
2019-05-21T11:44:28.409Z,1.30
2019-05-21T11:47:00.571Z,3.20
2019-05-21T11:49:32.733Z,3.90
2019-05-21T11:52:05.077Z,0.90
2019-05-21T11:54:37.360Z,1.93
2019-05-21T11:57:09.497Z,2.67
2019-05-21T11:59:41.896Z,2.03
2019-05-21T12:02:15.561Z,1.07
2019-05-21T12:04:47.868Z,1.23
2019-05-21T12:07:20.089Z,2.60
2019-05-21T12:09:52.878Z,2.50
2019-05-21T12:12:25.014Z,1.93
2019-05-21T12:14:57.200Z,2.27
2019-05-21T12:17:29.328Z,1.33
2019-05-21T12:20:01.421Z,2.30
2019-05-21T12:22:33.835Z,0.97
2019-05-21T12:25:06.606Z,1.43
2019-05-21T12:27:39.736Z,2.07
2019-05-21T12:30:12.419Z,2.10
2019-05-21T12:32:44.435Z,1.47
2019-05-21T12:35:16.970Z,2.13
2019-05-21T12:37:49.317Z,1.97
2019-05-21T12:40:21.930Z,2.20
2019-05-21T12:42:54.266Z,1.73
2019-05-21T12:45:26.368Z,1.33
2019-05-21T12:47:58.676Z,1.53
2019-05-21T12:50:31.038Z,1.73
2019-05-21T12:53:03.342Z,1.40
2019-05-21T12:55:35.796Z,2.10
2019-05-21T12:58:07.920Z,6.67
2019-05-21T13:00:40.938Z,4.10
2019-05-21T13:03:13.436Z,1.40
2019-05-21T13:05:46.056Z,1.70
2019-05-21T13:08:19.486Z,2.43
2019-05-21T13:10:51.694Z,2.03
2019-05-21T13:13:23.896Z,1.40
2019-05-21T13:15:56.338Z,1.93
2019-05-21T13:18:28.653Z,2.37
2019-05-21T13:21:01.421Z,1.97
2019-05-21T13:23:34.238Z,1.97
2019-05-21T13:26:08.813Z,1.23
2019-05-21T13:28:41.376Z,1.40
2019-05-21T13:31:13.586Z,3.33
2019-05-21T13:33:46.161Z,1.60
2019-05-21T13:36:18.480Z,3.00
2019-05-21T13:38:50.984Z,1.30
2019-05-21T13:41:23.362Z,1.40
2019-05-21T13:43:55.516Z,1.43
2019-05-21T13:46:28.029Z,2.17
2019-05-21T13:49:00.441Z,1.50
2019-05-21T13:51:32.798Z,1.20
2019-05-21T13:54:05.148Z,1.93
2019-05-21T13:56:37.356Z,1.30
2019-05-21T13:59:09.834Z,1.20
2019-05-21T14:01:42.363Z,1.93
2019-05-21T14:04:15.043Z,1.93
2019-05-21T14:06:47.324Z,1.83
2019-05-21T14:09:19.982Z,1.00
2019-05-21T14:11:52.493Z,1.83
2019-05-21T14:14:24.814Z,1.53
2019-05-21T14:16:57.176Z,0.90
2019-05-21T14:19:29.404Z,2.63
2019-05-21T14:22:01.750Z,1.00
2019-05-21T14:24:34.265Z,1.43
2019-05-21T14:27:07.439Z,1.10
2019-05-21T14:29:40.079Z,1.40
2019-05-21T14:32:12.403Z,1.10
2019-05-21T14:35:00.200Z,2.03
2019-05-21T14:37:18.502Z,1.37
2019-05-21T14:39:50.722Z,1.40
2019-05-21T14:42:23.021Z,1.37
2019-05-21T14:44:55.578Z,2.23
2019-05-21T14:47:28.060Z,2.13
2019-05-21T14:50:00.525Z,3.40
2019-05-21T14:52:32.782Z,2.93
2019-05-21T14:55:05.748Z,3.00
2019-05-21T14:57:38.469Z,1.40
2019-05-21T15:00:36.984Z,1.80
2019-05-21T15:03:24.187Z,1.40
2019-05-21T15:05:43.542Z,1.73
2019-05-21T15:08:16.199Z,1.90
2019-05-21T15:10:49.708Z,1.43
2019-05-21T15:13:22.102Z,1.30
2019-05-21T15:15:55.905Z,1.73
2019-05-21T15:18:28.495Z,3.43
2019-05-21T15:21:23.924Z,2.67
2019-05-21T15:23:56.360Z,1.30
2019-05-21T15:26:28.850Z,1.73
2019-05-21T15:29:01.266Z,1.77
2019-05-21T15:31:33.492Z,2.20
2019-05-21T15:34:05.843Z,1.87
2019-05-21T15:36:38.215Z,3.67
2019-05-21T15:39:10.819Z,1.57
2019-05-21T15:41:43.081Z,2.77
2019-05-21T15:44:15.474Z,0.90
2019-05-21T15:46:50.423Z,0.90
2019-05-21T15:49:35.157Z,0.90
2019-05-21T15:51:56.061Z,1.43
2019-05-21T15:54:28.515Z,1.30
2019-05-21T15:57:00.803Z,1.87
2019-05-21T15:59:33.017Z,3.07
2019-05-21T16:02:05.483Z,1.30
2019-05-21T16:04:37.681Z,1.00
2019-05-21T16:07:10.121Z,2.90
2019-05-21T16:09:42.445Z,1.57
2019-05-21T16:12:15.007Z,1.17
2019-05-21T16:14:47.964Z,0.97
2019-05-21T16:17:20.775Z,1.10
2019-05-21T16:19:53.277Z,1.17
2019-05-21T16:22:25.722Z,1.00
2019-05-21T16:24:59.861Z,2.07
2019-05-21T16:27:32.534Z,1.10
2019-05-21T16:30:05.511Z,3.10
2019-05-21T16:32:38.025Z,2.00
2019-05-21T16:35:12.109Z,2.10
2019-05-21T16:37:44.501Z,1.90
2019-05-21T16:40:18.047Z,2.27
2019-05-21T16:42:50.408Z,1.93
2019-05-21T16:45:24.395Z,1.70
2019-05-21T16:47:56.820Z,1.70
2019-05-21T16:50:29.556Z,1.70
2019-05-21T16:53:02.087Z,1.47
2019-05-21T16:55:35.175Z,1.53
2019-05-21T16:58:07.849Z,1.57
2019-05-21T17:00:40.670Z,2.20
2019-05-21T17:03:13.127Z,1.67
2019-05-21T17:05:45.663Z,1.30
2019-05-21T17:08:18.225Z,1.10
2019-05-21T17:10:50.783Z,2.20
2019-05-21T17:13:23.407Z,1.30
2019-05-21T17:15:55.915Z,1.13
2019-05-21T17:18:28.574Z,1.60
2019-05-21T17:21:03.431Z,1.20
2019-05-21T17:23:35.904Z,1.50
2019-05-21T17:26:08.607Z,1.30
2019-05-21T17:28:40.985Z,1.57
2019-05-21T17:31:13.471Z,1.97
2019-05-21T17:33:46.033Z,1.77
2019-05-21T17:36:18.611Z,1.47
2019-05-21T17:38:51.242Z,1.20
2019-05-21T17:41:23.994Z,1.83
2019-05-21T17:43:56.513Z,1.77
2019-05-21T17:46:29.263Z,4.10
2019-05-21T17:49:01.865Z,2.07
2019-05-21T17:51:34.407Z,3.30
2019-05-21T17:54:06.776Z,2.50
2019-05-21T17:56:39.279Z,2.63
2019-05-21T17:59:11.900Z,3.97
2019-05-21T18:01:44.271Z,5.00
2019-05-21T18:04:17.481Z,2.40
2019-05-21T18:06:49.900Z,2.80
2019-05-21T18:09:23.574Z,4.93
2019-05-21T18:11:56.288Z,2.77
2019-05-21T18:14:29.828Z,4.80
2019-05-21T18:17:03.079Z,2.60
2019-05-21T18:19:36.170Z,2.07
2019-05-21T18:22:10.271Z,4.43
2019-05-21T18:24:42.677Z,1.53
2019-05-21T18:27:14.992Z,2.40
2019-05-21T18:29:47.343Z,2.60
2019-05-21T18:32:20.006Z,5.17
2019-05-21T18:34:52.705Z,4.83
2019-05-21T18:37:26.380Z,3.00
2019-05-21T18:39:59.604Z,6.03
2019-05-21T18:42:32.469Z,7.30
2019-05-21T18:45:05.284Z,2.77
2019-05-21T18:47:37.779Z,1.97
2019-05-21T18:50:10.872Z,1.63
2019-05-21T18:52:43.388Z,2.63
2019-05-21T18:55:16.301Z,2.50
2019-05-21T18:57:48.676Z,5.30
2019-05-21T19:00:22.240Z,8.10
2019-05-21T19:02:54.628Z,2.33
2019-05-21T19:05:27.444Z,2.03
2019-05-21T19:08:00.189Z,3.47
2019-05-21T19:10:32.633Z,2.37
2019-05-21T19:13:05.329Z,2.10
2019-05-21T19:15:37.777Z,3.97
2019-05-21T19:18:10.993Z,3.37
2019-05-21T19:20:43.503Z,4.33
2019-05-21T19:23:16.056Z,1.90
2019-05-21T19:25:48.757Z,2.70
2019-05-21T19:28:21.438Z,2.40
2019-05-21T19:30:54.373Z,2.20
2019-05-21T19:33:27.084Z,2.13
2019-05-21T19:35:59.961Z,1.40
2019-05-21T19:38:32.694Z,1.77
2019-05-21T19:41:07.328Z,1.77
2019-05-21T19:43:40.376Z,2.17
2019-05-21T19:46:12.765Z,2.67
2019-05-21T19:48:45.804Z,2.20
2019-05-21T19:51:18.783Z,1.57
2019-05-21T19:53:51.759Z,2.03
2019-05-21T19:56:24.582Z,2.63
2019-05-21T19:58:57.334Z,2.40
2019-05-21T20:01:30.928Z,3.17
2019-05-21T20:04:05.098Z,2.90
2019-05-21T20:06:37.895Z,3.93
2019-05-21T20:09:17.022Z,2.17
2019-05-21T20:11:49.910Z,1.77
2019-05-21T20:14:22.617Z,5.00
2019-05-21T20:16:56.253Z,1.70
2019-05-21T20:19:30.544Z,1.60
2019-05-21T20:22:04.667Z,1.97
2019-05-21T20:24:37.305Z,2.77
2019-05-21T20:27:10.112Z,2.83
2019-05-21T20:29:42.981Z,2.13
2019-05-21T20:32:17.390Z,2.43
2019-05-21T20:34:51.187Z,1.60
2019-05-21T20:37:29.801Z,2.30
2019-05-21T20:40:03.238Z,1.50
2019-05-21T20:42:37.492Z,1.53
2019-05-21T20:45:11.542Z,2.10
2019-05-21T20:47:45.647Z,1.77
2019-05-21T20:50:20.275Z,2.03
2019-05-21T20:52:53.668Z,2.93
2019-05-21T20:55:26.463Z,1.70
2019-05-21T20:57:59.704Z,1.83
2019-05-21T21:00:41.244Z,2.13
2019-05-21T21:03:15.505Z,1.70
2019-05-21T21:05:48.275Z,1.63
2019-05-21T21:08:20.755Z,1.50
2019-05-21T21:10:53.330Z,1.70
2019-05-21T21:13:26.229Z,1.90
2019-05-21T21:15:59.297Z,2.57
2019-05-21T21:18:32.141Z,2.20
2019-05-21T21:21:04.735Z,1.67
2019-05-21T21:23:37.305Z,1.93
2019-05-21T21:26:10.117Z,2.97
2019-05-21T21:28:42.367Z,2.90
2019-05-21T21:31:14.537Z,1.90
2019-05-21T21:33:47.698Z,3.50
2019-05-21T21:36:20.220Z,2.27
2019-05-21T21:38:53.119Z,4.50
2019-05-21T21:41:25.512Z,2.60
2019-05-21T21:43:57.803Z,4.17
2019-05-21T21:46:30.247Z,2.33
2019-05-21T21:49:02.790Z,5.53
2019-05-21T21:51:35.151Z,2.30
2019-05-21T21:54:08.695Z,2.30
2019-05-21T21:56:40.777Z,2.60
2019-05-21T21:59:13.339Z,2.77
2019-05-21T22:02:10.634Z,3.03
2019-05-21T22:04:44.855Z,2.00
2019-05-21T22:07:17.091Z,2.00
2019-05-21T22:09:50.596Z,2.20
2019-05-21T22:12:24.133Z,4.90
2019-05-21T22:15:02.246Z,2.60
2019-05-21T22:17:34.764Z,1.83
2019-05-21T22:20:09.725Z,1.50
2019-05-21T22:22:42.113Z,2.80
2019-05-21T22:25:15.003Z,2.10
2019-05-21T22:27:47.652Z,2.90
2019-05-21T22:30:20.992Z,1.83
2019-05-21T22:32:53.193Z,2.70
2019-05-21T22:35:25.799Z,2.07
2019-05-21T22:37:58.231Z,1.60
2019-05-21T22:40:30.684Z,1.73
2019-05-21T22:43:03.094Z,3.00
2019-05-21T22:45:35.575Z,2.57
2019-05-21T22:48:08.093Z,1.67
2019-05-21T22:50:40.415Z,1.53
2019-05-21T22:53:12.724Z,3.07
2019-05-21T22:55:45.039Z,4.03
2019-05-21T22:58:17.302Z,2.40
2019-05-21T23:00:49.805Z,1.67
2019-05-21T23:03:22.025Z,1.60
2019-05-21T23:05:54.169Z,2.13
2019-05-21T23:08:27.404Z,1.80
2019-05-21T23:10:59.422Z,8.43
2019-05-21T23:13:31.674Z,3.20
2019-05-21T23:16:04.144Z,2.00
2019-05-21T23:18:36.358Z,2.50
2019-05-21T23:21:11.226Z,2.13
2019-05-21T23:23:44.870Z,2.03
2019-05-21T23:26:18.253Z,2.73
2019-05-21T23:28:50.911Z,2.53
2019-05-21T23:31:23.031Z,1.87
2019-05-21T23:33:58.729Z,2.00
2019-05-21T23:36:31.253Z,2.17
2019-05-21T23:39:04.789Z,2.07
2019-05-21T23:41:36.872Z,2.20
2019-05-21T23:44:08.970Z,2.47
2019-05-21T23:46:41.858Z,1.87
2019-05-21T23:49:14.287Z,2.00
2019-05-21T23:51:46.466Z,3.80
2019-05-21T23:54:19.665Z,3.57
2019-05-21T23:56:52.691Z,1.70
2019-05-21T23:59:25.324Z,1.93
